createdAt,value
2017-09-16T00:01:57.076Z,88.1
2017-09-16T00:02:56.490Z,88.1
2017-09-16T00:03:55.405Z,88.1
2017-09-16T00:04:54.949Z,88.1
2017-09-16T00:05:53.737Z,88
2017-09-16T00:06:53.152Z,87.9
2017-09-16T00:07:52.072Z,87.8
2017-09-16T00:08:51.114Z,87.8
2017-09-16T00:09:50.409Z,87.7
2017-09-16T00:10:49.700Z,88.1
2017-09-16T00:11:48.743Z,88.4
2017-09-16T00:12:47.911Z,88.3
2017-09-16T00:13:47.199Z,88.5
2017-09-16T00:15:45.379Z,88.9
2017-09-16T00:16:44.793Z,88.6
2017-09-16T00:17:43.708Z,88.7
2017-09-16T00:18:42.884Z,88.9
2017-09-16T00:19:42.179Z,88.8
2017-09-16T00:20:41.346Z,88.6
2017-09-16T00:21:40.517Z,88.8
2017-09-16T00:22:39.440Z,88.8
2017-09-16T00:23:38.851Z,88.7
2017-09-16T00:24:37.512Z,88.7
2017-09-16T00:25:36.816Z,88.8
2017-09-16T00:26:36.233Z,88.8
2017-09-16T00:27:35.024Z,89
2017-09-16T00:28:34.566Z,89.1
2017-09-16T00:29:33.736Z,89
2017-09-16T00:30:32.774Z,89
2017-09-16T00:31:32.068Z,89.1
2017-09-16T00:32:30.734Z,89.2
2017-09-16T00:33:30.278Z,89.6
2017-09-16T00:35:28.202Z,89.4
2017-09-16T00:36:27.503Z,89.4
2017-09-16T00:37:27.043Z,89.5
2017-09-16T00:38:25.836Z,89.6
2017-09-16T00:39:25.259Z,89.5
2017-09-16T00:40:24.050Z,89.3
2017-09-16T00:41:23.223Z,89.3
2017-09-16T00:43:21.647Z,89.2
2017-09-16T00:44:21.060Z,89.5
2017-09-16T00:45:19.726Z,89.5
2017-09-16T00:46:19.267Z,89.3
2017-09-16T00:47:18.059Z,89.4
2017-09-16T00:48:17.474Z,89.4
2017-09-16T00:49:16.391Z,89.8
2017-09-16T00:49:46.753Z,89.8
2017-09-16T00:51:14.981Z,89.7
2017-09-16T00:52:13.776Z,89.9
2017-09-16T00:53:13.073Z,89.7
2017-09-16T00:54:11.992Z,89.8
2017-09-16T00:56:10.802Z,89.7
2017-09-16T00:57:09.975Z,89.6
2017-09-16T00:58:08.885Z,89.4
2017-09-16T00:59:08.055Z,89.5
2017-09-16T01:00:06.843Z,89.4
2017-09-16T01:01:06.521Z,89.5
2017-09-16T01:02:05.441Z,89.3
2017-09-16T01:03:04.734Z,89.4
2017-09-16T01:04:03.903Z,89.3
2017-09-16T01:05:02.814Z,89.2
2017-09-16T01:06:01.980Z,89.3
2017-09-16T01:07:00.894Z,89.3
2017-09-16T01:07:59.934Z,89.2
2017-09-16T01:08:59.612Z,89.3
2017-09-16T01:09:58.558Z,89.2
2017-09-16T01:10:57.603Z,89.5
2017-09-16T01:11:56.891Z,89.4
2017-09-16T01:12:55.940Z,89.2
2017-09-16T01:13:55.237Z,89.4
2017-09-16T01:14:54.159Z,89.6
2017-09-16T01:15:53.575Z,89.6
2017-09-16T01:16:52.245Z,89.9
2017-09-16T01:17:51.910Z,89.9
2017-09-16T01:18:50.698Z,89.9
2017-09-16T01:19:20.800Z,89.9
2017-09-16T01:19:51.278Z,89.6
2017-09-16T01:20:21.884Z,89.6
2017-09-16T01:20:52.235Z,89.6
2017-09-16T01:21:22.712Z,89.6
2017-09-16T01:22:47.044Z,89.7
2017-09-16T01:23:46.715Z,89.8
2017-09-16T01:24:45.504Z,89.8
2017-09-16T01:25:44.794Z,89.6
2017-09-16T01:26:44.220Z,89.5
2017-09-16T01:27:43.010Z,89.7
2017-09-16T01:28:42.433Z,89.6
2017-09-16T01:29:41.220Z,89.7
2017-09-16T01:30:11.449Z,89.7
2017-09-16T01:30:41.676Z,89.9
2017-09-16T01:31:12.408Z,89.9
2017-09-16T01:31:42.639Z,89.6
2017-09-16T01:32:13.373Z,89.6
2017-09-16T01:33:37.707Z,89.4
2017-09-16T01:34:37.120Z,89.4
2017-09-16T01:35:36.031Z,89.5
2017-09-16T01:36:35.446Z,89.6
2017-09-16T01:37:34.489Z,89.6
2017-09-16T01:38:33.402Z,89.7
2017-09-16T01:39:32.567Z,90
2017-09-16T01:40:31.726Z,90.1
2017-09-16T01:41:31.022Z,90.1
2017-09-16T01:42:30.320Z,90.4
2017-09-16T01:43:29.487Z,90.1
2017-09-16T01:44:28.535Z,89.9
2017-09-16T01:45:27.704Z,89.7
2017-09-16T01:46:26.373Z,89.6
2017-09-16T01:47:25.672Z,89.6
2017-09-16T01:48:25.093Z,89.6
2017-09-16T01:49:24.128Z,89.5
2017-09-16T01:50:23.289Z,89.6
2017-09-16T01:51:22.233Z,89.5
2017-09-16T01:52:21.527Z,90
2017-09-16T01:53:20.695Z,89.8
2017-09-16T01:54:19.608Z,89.8
2017-09-16T01:55:19.038Z,89.8
2017-09-16T01:56:18.210Z,89.8
2017-09-16T01:57:16.999Z,89.9
2017-09-16T01:58:16.294Z,90
2017-09-16T01:59:15.333Z,89.9
2017-09-16T02:00:14.373Z,90
2017-09-16T02:01:13.667Z,90
2017-09-16T02:01:43.898Z,90
2017-09-16T02:02:14.381Z,89.8
2017-09-16T02:02:44.896Z,89.8
2017-09-16T02:04:10.996Z,89.8
2017-09-16T02:05:10.131Z,89.7
2017-09-16T02:06:09.183Z,89.8
2017-09-16T02:07:08.356Z,90.1
2017-09-16T02:08:07.658Z,90.2
2017-09-16T02:09:06.823Z,90.1
2017-09-16T02:10:05.988Z,90
2017-09-16T02:11:05.157Z,90
2017-09-16T02:11:35.769Z,90
2017-09-16T02:12:06.253Z,90.2
2017-09-16T02:12:36.861Z,90.2
2017-09-16T02:13:06.977Z,90.3
2017-09-16T02:13:37.458Z,90.3
2017-09-16T02:14:07.938Z,90.5
2017-09-16T02:14:38.419Z,90.5
2017-09-16T02:15:08.905Z,90.4
2017-09-16T02:16:00.773Z,90.2
2017-09-16T02:16:59.945Z,90.3
2017-09-16T02:17:58.735Z,90.5
2017-09-16T02:18:57.772Z,90.5
2017-09-16T02:19:57.064Z,90.6
2017-09-16T02:20:56.240Z,90.5
2017-09-16T02:21:55.532Z,90.6
2017-09-16T02:22:54.826Z,90.5
2017-09-16T02:23:53.612Z,90.3
2017-09-16T02:24:52.538Z,90.3
2017-09-16T02:25:51.866Z,90.2
2017-09-16T02:26:51.282Z,90.1
2017-09-16T02:27:50.195Z,90.1
2017-09-16T02:28:49.617Z,90.2
2017-09-16T02:29:48.524Z,90.1
2017-09-16T02:30:47.693Z,90
2017-09-16T02:31:46.609Z,90.1
2017-09-16T02:32:46.151Z,90.5
2017-09-16T02:33:45.072Z,90.6
2017-09-16T02:34:44.370Z,90.6
2017-09-16T02:35:43.408Z,90.5
2017-09-16T02:38:40.720Z,90.5
2017-09-16T02:39:39.645Z,90.3
2017-09-16T02:40:39.192Z,90.2
2017-09-16T02:41:38.360Z,90.1
2017-09-16T02:42:37.028Z,90.1
2017-09-16T02:43:36.194Z,90
2017-09-16T02:44:35.617Z,90
2017-09-16T02:45:34.664Z,90
2017-09-16T02:46:33.703Z,90
2017-09-16T02:47:33.124Z,90
2017-09-16T02:48:32.176Z,90.5
2017-09-16T02:49:30.957Z,90.3
2017-09-16T02:50:30.380Z,90.3
2017-09-16T02:51:29.550Z,90.1
2017-09-16T02:52:28.479Z,90.5
2017-09-16T02:53:27.388Z,90.4
2017-09-16T02:54:26.805Z,90.4
2017-09-16T02:55:25.975Z,90.5
2017-09-16T02:56:25.156Z,90.5
2017-09-16T02:57:23.944Z,90.3
2017-09-16T02:57:54.421Z,90.3
2017-09-16T02:59:22.270Z,90.2
2017-09-16T03:00:21.436Z,90.2
2017-09-16T03:01:20.606Z,90.1
2017-09-16T03:02:20.023Z,90.4
2017-09-16T03:03:19.188Z,90.7
2017-09-16T03:04:18.223Z,90.6
2017-09-16T03:05:17.146Z,90.5
2017-09-16T03:06:16.436Z,90.5
2017-09-16T03:08:14.483Z,90.5
2017-09-16T03:08:44.839Z,90.5
2017-09-16T03:09:15.316Z,90.6
2017-09-16T03:10:12.749Z,90.6
2017-09-16T03:11:12.038Z,90.7
2017-09-16T03:12:11.207Z,90.7
2017-09-16T03:13:09.992Z,90.6
2017-09-16T03:14:09.160Z,90.4
2017-09-16T03:15:08.452Z,90.4
2017-09-16T03:16:07.614Z,90.5
2017-09-16T03:19:05.052Z,90.9
2017-09-16T03:20:03.971Z,90.8
2017-09-16T03:21:03.039Z,90.7
2017-09-16T03:23:01.591Z,90.8
2017-09-16T03:24:00.763Z,90.8
2017-09-16T03:24:59.691Z,90.7
2017-09-16T03:25:58.980Z,90.6
2017-09-16T03:26:57.920Z,91.1
2017-09-16T03:27:56.961Z,91
2017-09-16T03:28:56.249Z,91
2017-09-16T03:29:55.676Z,91.1
2017-09-16T03:32:52.609Z,90.7
2017-09-16T03:33:51.647Z,90.7
2017-09-16T03:34:50.946Z,90.5
2017-09-16T03:35:49.987Z,90.7
2017-09-16T03:36:49.278Z,90.9
2017-09-16T03:37:19.638Z,90.9
2017-09-16T03:37:49.865Z,90.7
2017-09-16T03:38:20.344Z,90.7
2017-09-16T03:38:50.447Z,90.6
2017-09-16T03:39:20.676Z,90.6
2017-09-16T03:40:46.011Z,90.5
2017-09-16T03:42:44.311Z,90.3
2017-09-16T03:43:42.968Z,90.3
2017-09-16T03:44:42.134Z,90.3
2017-09-16T03:45:41.298Z,90.5
2017-09-16T03:46:40.463Z,90.4
2017-09-16T03:47:11.063Z,90.4
2017-09-16T03:47:41.417Z,90.5
2017-09-16T03:48:11.903Z,90.5
2017-09-16T03:48:42.380Z,90.4
2017-09-16T03:49:12.734Z,90.4
2017-09-16T03:49:43.249Z,90.3
2017-09-16T03:50:13.729Z,90.3
2017-09-16T03:52:35.317Z,90.4
2017-09-16T03:53:34.115Z,90.3
2017-09-16T03:54:33.654Z,90.3
2017-09-16T03:55:32.817Z,90.2
2017-09-16T03:56:31.984Z,90.2
2017-09-16T03:57:31.027Z,90.2
2017-09-16T03:58:29.948Z,90.3
2017-09-16T03:59:29.238Z,90.3
2017-09-16T04:00:28.278Z,90.3
2017-09-16T04:02:26.464Z,90.3
2017-09-16T04:03:25.757Z,90.1
2017-09-16T04:04:25.047Z,90.1
2017-09-16T04:05:23.714Z,90.2
2017-09-16T04:06:22.887Z,90.4
2017-09-16T04:07:22.173Z,90.3
2017-09-16T04:08:21.092Z,90.2
2017-09-16T04:09:20.381Z,90.2
2017-09-16T04:10:19.421Z,90.2
2017-09-16T04:12:17.601Z,90.6
2017-09-16T04:13:17.017Z,90.8
2017-09-16T04:14:15.927Z,90.7
2017-09-16T04:15:15.343Z,90.6
2017-09-16T04:16:14.132Z,90.6
2017-09-16T04:17:13.303Z,90.8
2017-09-16T04:18:12.356Z,90.8
2017-09-16T04:19:11.398Z,90.8
2017-09-16T04:20:10.823Z,91.1
2017-09-16T04:22:09.000Z,91.2
2017-09-16T04:23:08.166Z,91.1
2017-09-16T04:24:07.455Z,91.3
2017-09-16T04:25:06.243Z,91.1
2017-09-16T04:26:05.534Z,91.1
2017-09-16T04:27:04.326Z,91
2017-09-16T04:28:03.742Z,91
2017-09-16T04:29:03.037Z,91.1
2017-09-16T04:29:33.137Z,91.1
2017-09-16T04:30:03.747Z,91.1
2017-09-16T04:30:34.101Z,91.1
2017-09-16T04:32:00.320Z,91.2
2017-09-16T04:32:59.136Z,91.1
2017-09-16T04:33:58.564Z,91.2
2017-09-16T04:34:57.733Z,91.1
2017-09-16T04:35:56.901Z,91
2017-09-16T04:36:55.683Z,91.2
2017-09-16T04:37:54.601Z,91.3
2017-09-16T04:38:54.149Z,91.3
2017-09-16T04:39:53.189Z,91.4
2017-09-16T04:40:51.983Z,91.4
2017-09-16T04:41:51.536Z,91.4
2017-09-16T04:42:50.574Z,91.3
2017-09-16T04:43:49.486Z,91.2
2017-09-16T04:44:48.655Z,91.1
2017-09-16T04:45:48.075Z,91.3
2017-09-16T04:46:46.744Z,91.4
2017-09-16T04:47:45.909Z,91.4
2017-09-16T04:48:45.330Z,91.4
2017-09-16T04:49:44.491Z,91.3
2017-09-16T04:50:43.160Z,91.4
2017-09-16T04:51:42.576Z,91.3
2017-09-16T04:52:41.611Z,91.2
2017-09-16T04:53:41.029Z,91.1
2017-09-16T04:54:40.201Z,91.2
2017-09-16T04:55:38.988Z,91.2
2017-09-16T04:56:38.405Z,91.1
2017-09-16T04:57:37.327Z,91.1
2017-09-16T04:58:36.492Z,91.1
2017-09-16T04:59:35.784Z,91
2017-09-16T05:00:34.450Z,91
2017-09-16T05:01:33.881Z,91.1
2017-09-16T05:02:32.799Z,91.2
2017-09-16T05:03:31.847Z,91.2
2017-09-16T05:04:31.164Z,91.3
2017-09-16T05:05:30.333Z,91.2
2017-09-16T05:06:29.623Z,91.3
2017-09-16T05:07:28.535Z,91
2017-09-16T05:08:27.448Z,91.1
2017-09-16T05:09:26.742Z,90.8
2017-09-16T05:10:25.664Z,90.8
2017-09-16T05:11:25.087Z,90.5
2017-09-16T05:12:24.000Z,90.7
2017-09-16T05:13:23.167Z,90.3
2017-09-16T05:14:22.084Z,90.3
2017-09-16T05:15:21.500Z,90
2017-09-16T05:16:20.668Z,90.1
2017-09-16T05:17:19.725Z,90
2017-09-16T05:18:18.890Z,89.8
2017-09-16T05:19:17.680Z,89.6
2017-09-16T05:20:16.857Z,89.7
2017-09-16T05:21:16.028Z,89.6
2017-09-16T05:23:14.349Z,89.4
2017-09-16T05:24:13.269Z,89.4
2017-09-16T05:25:12.688Z,89.5
2017-09-16T05:26:11.733Z,89.5
2017-09-16T05:27:10.788Z,89.4
2017-09-16T05:29:08.962Z,89.4
2017-09-16T05:30:08.130Z,89.3
2017-09-16T05:31:07.297Z,89.3
2017-09-16T05:32:06.332Z,89.2
2017-09-16T05:33:05.619Z,89.1
2017-09-16T05:34:04.412Z,89.1
2017-09-16T05:35:03.701Z,89
2017-09-16T05:36:02.999Z,88.8
2017-09-16T05:37:02.032Z,88.8
2017-09-16T05:38:01.205Z,88.8
2017-09-16T05:39:00.251Z,88.7
2017-09-16T05:39:59.292Z,88.7
2017-09-16T05:40:58.591Z,88.6
2017-09-16T05:41:57.879Z,88.6
2017-09-16T05:42:56.663Z,88.5
2017-09-16T05:43:56.091Z,88.4
2017-09-16T05:44:54.875Z,88.4
2017-09-16T05:45:54.172Z,88.2
2017-09-16T05:46:52.962Z,88.5
2017-09-16T05:47:52.380Z,88.4
2017-09-16T05:48:51.420Z,88.4
2017-09-16T05:49:50.834Z,88.5
2017-09-16T05:50:49.875Z,88.4
2017-09-16T05:51:48.543Z,88.3
2017-09-16T05:52:47.716Z,88.3
2017-09-16T05:53:47.131Z,88.4
2017-09-16T05:54:45.915Z,88.4
2017-09-16T05:55:45.091Z,88.3
2017-09-16T05:56:44.265Z,88.3
2017-09-16T05:57:43.429Z,88.4
2017-09-16T05:58:42.718Z,88.2
2017-09-16T05:59:41.938Z,88
2017-09-16T06:00:41.097Z,88
2017-09-16T06:01:39.897Z,87.7
2017-09-16T06:02:39.187Z,87.4
2017-09-16T06:03:38.351Z,87.5
2017-09-16T06:04:37.389Z,87.3
2017-09-16T06:05:36.313Z,87.4
2017-09-16T06:06:35.744Z,87.4
2017-09-16T06:07:34.660Z,87.5
2017-09-16T06:08:33.704Z,87.7
2017-09-16T06:09:32.995Z,87.5
2017-09-16T06:10:32.160Z,87.3
2017-09-16T06:11:31.451Z,87.3
2017-09-16T06:12:30.244Z,87.5
2017-09-16T06:13:29.536Z,87.4
2017-09-16T06:14:28.576Z,87.5
2017-09-16T06:15:27.498Z,87.5
2017-09-16T06:16:26.793Z,87.4
2017-09-16T06:17:25.842Z,87.2
2017-09-16T06:20:23.403Z,86.5
2017-09-16T06:22:21.703Z,86.3
2017-09-16T06:23:20.617Z,86.4
2017-09-16T06:24:19.782Z,86.3
2017-09-16T06:25:19.326Z,86
2017-09-16T06:26:18.119Z,85.9
2017-09-16T06:27:17.539Z,85.9
2017-09-16T06:28:16.590Z,85.2
2017-09-16T06:29:15.627Z,85.1
2017-09-16T06:30:14.419Z,85.3
2017-09-16T06:31:13.715Z,85.1
2017-09-16T06:32:13.011Z,84.6
2017-09-16T06:33:11.926Z,84.7
2017-09-16T06:35:10.228Z,84.7
2017-09-16T06:36:09.647Z,84.9
2017-09-16T06:37:08.316Z,85.2
2017-09-16T06:39:06.863Z,85.4
2017-09-16T06:40:06.160Z,85.4
2017-09-16T06:41:05.073Z,85.4
2017-09-16T06:42:04.119Z,84.8
2017-09-16T06:43:03.414Z,85.4
2017-09-16T06:44:02.712Z,85.2
2017-09-16T06:45:01.622Z,85.5
2017-09-16T06:46:00.538Z,85.2
2017-09-16T06:46:59.955Z,84.2
2017-09-16T06:47:58.877Z,83.9
2017-09-16T06:48:58.300Z,83.5
2017-09-16T06:49:57.465Z,83.3
2017-09-16T06:50:56.633Z,83.6
2017-09-16T06:51:55.422Z,83.6
2017-09-16T06:52:54.590Z,83.4
2017-09-16T06:54:53.145Z,83.4
2017-09-16T06:55:52.183Z,83.6
2017-09-16T06:56:51.350Z,83.2
2017-09-16T06:57:50.275Z,83.2
2017-09-16T06:58:49.820Z,83.5
2017-09-16T06:59:48.856Z,84
2017-09-16T07:00:47.765Z,83.8
2017-09-16T07:01:46.807Z,83.4
2017-09-16T07:02:46.229Z,83.4
2017-09-16T07:03:45.022Z,83.6
2017-09-16T07:06:42.706Z,84
2017-09-16T07:07:41.618Z,84.3
2017-09-16T07:08:40.786Z,84.2
2017-09-16T07:09:39.825Z,84
2017-09-16T07:10:39.250Z,84
2017-09-16T07:11:38.544Z,83.9
2017-09-16T07:12:37.582Z,83.2
2017-09-16T07:13:36.750Z,83.5
2017-09-16T07:14:35.913Z,83.9
2017-09-16T07:15:34.955Z,84
2017-09-16T07:16:33.873Z,83.6
2017-09-16T07:17:33.159Z,83.3
2017-09-16T07:18:32.454Z,83.5
2017-09-16T07:19:31.242Z,83.2
2017-09-16T07:20:30.539Z,83.7
2017-09-16T07:21:29.962Z,83.2
2017-09-16T07:22:29.257Z,83.3
2017-09-16T07:23:28.428Z,83.3
2017-09-16T07:23:59.033Z,83.3
2017-09-16T07:24:29.260Z,82.6
2017-09-16T07:24:59.613Z,82.6
2017-09-16T07:25:30.222Z,82.4
2017-09-16T07:26:00.953Z,82.4
2017-09-16T07:27:24.539Z,82.6
2017-09-16T07:28:23.712Z,82.8
2017-09-16T07:29:22.874Z,83
2017-09-16T07:30:21.913Z,83.1
2017-09-16T07:31:21.334Z,83.2
2017-09-16T07:32:20.245Z,83.2
2017-09-16T07:33:19.283Z,83
2017-09-16T07:34:18.953Z,83.3
2017-09-16T07:35:17.996Z,83.4
2017-09-16T07:35:48.729Z,83.4
2017-09-16T07:36:19.209Z,83.2
2017-09-16T07:36:49.822Z,83.2
2017-09-16T07:38:15.160Z,83.3
2017-09-16T07:40:13.839Z,83.2
2017-09-16T07:41:12.500Z,83.5
2017-09-16T07:42:11.924Z,83.6
2017-09-16T07:43:11.096Z,83.6
2017-09-16T07:44:10.285Z,83.7
2017-09-16T07:45:09.336Z,84.2
2017-09-16T07:46:08.626Z,84.5
2017-09-16T07:47:07.542Z,84.3
2017-09-16T07:48:06.837Z,84.3
2017-09-16T07:49:06.135Z,84.6
2017-09-16T07:50:04.932Z,84.6
2017-09-16T07:51:04.102Z,84.7
2017-09-16T07:52:03.517Z,84.6
2017-09-16T07:53:02.437Z,84.6
2017-09-16T07:54:01.734Z,84.9
2017-09-16T07:55:00.775Z,84.8
2017-09-16T07:56:00.191Z,84.9
2017-09-16T07:56:58.982Z,85
2017-09-16T07:57:58.410Z,85.2
2017-09-16T07:58:57.201Z,85.4
2017-09-16T07:59:56.365Z,85
2017-09-16T08:00:55.656Z,84.6
2017-09-16T08:01:54.731Z,84.7
2017-09-16T08:02:54.023Z,84.2
2017-09-16T08:03:53.320Z,83.8
2017-09-16T08:04:52.239Z,83.4
2017-09-16T08:05:51.408Z,83.8
2017-09-16T08:06:21.529Z,83.8
2017-09-16T08:06:51.884Z,83.8
2017-09-16T08:07:22.504Z,83.8
2017-09-16T08:08:48.849Z,83.1
2017-09-16T08:09:48.140Z,83.2
2017-09-16T08:10:47.559Z,83.2
2017-09-16T08:11:46.350Z,83.3
2017-09-16T08:12:45.390Z,83
2017-09-16T08:13:44.561Z,82.9
2017-09-16T08:14:43.736Z,83.1
2017-09-16T08:15:43.156Z,83.2
2017-09-16T08:16:42.076Z,83.3
2017-09-16T08:17:12.303Z,83.3
2017-09-16T08:18:40.532Z,82.8
2017-09-16T08:19:39.447Z,82.3
2017-09-16T08:20:38.619Z,82.1
2017-09-16T08:21:38.165Z,82.2
2017-09-16T08:22:36.958Z,81.4
2017-09-16T08:23:36.257Z,81.5
2017-09-16T08:24:35.183Z,81.4
2017-09-16T08:25:34.476Z,81.5
2017-09-16T08:26:33.766Z,81.9
2017-09-16T08:27:33.181Z,82
2017-09-16T08:28:31.969Z,82.1
2017-09-16T08:29:31.134Z,82.2
2017-09-16T08:30:30.311Z,82.2
2017-09-16T08:31:29.606Z,82.2
2017-09-16T08:32:28.524Z,82.3
2017-09-16T08:33:27.568Z,81.9
2017-09-16T08:34:26.982Z,82.2
2017-09-16T08:35:26.438Z,82.3
2017-09-16T08:36:25.353Z,82.2
2017-09-16T08:37:24.777Z,82.2
2017-09-16T08:38:23.815Z,82.1
2017-09-16T08:39:22.982Z,81.9
2017-09-16T08:40:21.905Z,81.9
2017-09-16T08:42:20.330Z,81.6
2017-09-16T08:43:19.758Z,81.9
2017-09-16T08:44:18.686Z,82.2
2017-09-16T08:45:17.856Z,82.1
2017-09-16T08:46:17.021Z,82.2
2017-09-16T08:47:16.190Z,82.3
2017-09-16T08:48:15.482Z,82.2
2017-09-16T08:49:14.152Z,82.2
2017-09-16T08:50:13.441Z,82
2017-09-16T08:51:12.861Z,81.9
2017-09-16T08:52:11.776Z,82
2017-09-16T08:53:11.072Z,82.1
2017-09-16T08:54:09.984Z,82.4
2017-09-16T08:55:09.153Z,82.2
2017-09-16T08:56:08.442Z,81.8
2017-09-16T08:57:07.607Z,81.8
2017-09-16T08:58:06.902Z,82.1
2017-09-16T08:59:05.947Z,82.2
2017-09-16T09:00:04.989Z,82.4
2017-09-16T09:01:04.413Z,82.7
2017-09-16T09:02:03.579Z,83.1
2017-09-16T09:02:33.806Z,83.1
2017-09-16T09:05:00.919Z,81.3
2017-09-16T09:06:00.348Z,81.8
2017-09-16T09:07:58.527Z,81
2017-09-16T09:08:57.693Z,81.1
2017-09-16T09:09:57.823Z,81.6
2017-09-16T09:10:56.162Z,81.2
2017-09-16T09:11:55.329Z,81.4
2017-09-16T09:12:25.947Z,81.4
2017-09-16T09:13:53.755Z,81.3
2017-09-16T09:14:52.683Z,81.6
2017-09-16T09:15:52.101Z,80.7
2017-09-16T09:16:51.023Z,80.7
2017-09-16T09:17:50.186Z,81.2
2017-09-16T09:18:49.733Z,81.3
2017-09-16T09:19:48.776Z,82
2017-09-16T09:20:48.065Z,80.7
2017-09-16T09:21:46.986Z,81.8
2017-09-16T09:22:46.420Z,81.3
2017-09-16T09:23:45.355Z,81.3
2017-09-16T09:24:44.275Z,81.1
2017-09-16T09:25:43.693Z,80.7
2017-09-16T09:26:43.114Z,80.3
2017-09-16T09:27:42.280Z,80.1
2017-09-16T09:28:41.324Z,78.1
2017-09-16T09:29:40.366Z,77.7
2017-09-16T09:30:39.406Z,77.8
2017-09-16T09:31:38.569Z,76.6
2017-09-16T09:32:37.866Z,76.1
2017-09-16T09:33:37.287Z,76.7
2017-09-16T09:34:36.333Z,77
2017-09-16T09:35:35.621Z,77.1
2017-09-16T09:36:34.538Z,77
2017-09-16T09:37:33.705Z,74.5
2017-09-16T09:38:32.874Z,73.9
2017-09-16T09:39:32.296Z,76.1
2017-09-16T09:40:31.219Z,74.6
2017-09-16T09:41:30.762Z,74.4
2017-09-16T09:42:01.119Z,74.4
2017-09-16T09:42:31.731Z,73.7
2017-09-16T09:43:01.834Z,73.7
2017-09-16T09:43:32.443Z,74.9
2017-09-16T09:44:02.545Z,74.9
2017-09-16T09:44:32.899Z,74.2
2017-09-16T09:45:03.373Z,74.2
2017-09-16T09:46:26.566Z,74.6
2017-09-16T09:47:25.606Z,74.5
2017-09-16T09:48:25.027Z,74.3
2017-09-16T09:49:24.324Z,74.7
2017-09-16T09:50:23.242Z,74.6
2017-09-16T09:51:22.531Z,75.2
2017-09-16T09:52:21.952Z,74.6
2017-09-16T09:52:52.556Z,74.6
2017-09-16T09:53:23.034Z,74.7
2017-09-16T09:53:53.636Z,74.7
2017-09-16T09:54:24.114Z,74.6
2017-09-16T09:54:54.473Z,74.6
2017-09-16T09:55:24.825Z,75.2
2017-09-16T09:55:55.064Z,75.2
2017-09-16T09:57:17.379Z,74.8
2017-09-16T09:58:16.793Z,75.4
2017-09-16T09:59:16.207Z,76.9
2017-09-16T10:01:14.203Z,75.4
2017-09-16T10:02:13.367Z,74
2017-09-16T10:03:12.666Z,74.6
2017-09-16T10:04:12.085Z,73.6
2017-09-16T10:05:11.250Z,74.1
2017-09-16T10:06:10.674Z,74.7
2017-09-16T10:07:09.585Z,74.6
2017-09-16T10:08:08.878Z,75.1
2017-09-16T10:09:08.177Z,73.3
2017-09-16T10:10:07.212Z,72.9
2017-09-16T10:11:06.126Z,73.3
2017-09-16T10:12:05.548Z,73.5
2017-09-16T10:13:04.718Z,74
2017-09-16T10:14:04.140Z,71.2
2017-09-16T10:15:03.331Z,70.6
2017-09-16T10:16:02.258Z,71.8
2017-09-16T10:17:01.430Z,71.5
2017-09-16T10:18:00.846Z,71.5
2017-09-16T10:19:00.139Z,71.8
2017-09-16T10:19:59.436Z,72.1
2017-09-16T10:20:58.095Z,72.9
2017-09-16T10:21:57.516Z,72.8
2017-09-16T10:22:56.805Z,71.6
2017-09-16T10:23:56.103Z,70.3
2017-09-16T10:24:55.146Z,70.4
2017-09-16T10:25:25.879Z,70.4
2017-09-16T10:25:56.227Z,70.3
2017-09-16T10:26:26.576Z,70.3
2017-09-16T10:27:52.919Z,70
2017-09-16T10:28:52.213Z,70.1
2017-09-16T10:29:51.373Z,70.5
2017-09-16T10:30:50.293Z,70.6
2017-09-16T10:31:49.836Z,70.4
2017-09-16T10:32:48.621Z,70.9
2017-09-16T10:33:47.919Z,70.6
2017-09-16T10:34:47.461Z,69.5
2017-09-16T10:35:17.950Z,69.5
2017-09-16T10:35:48.303Z,67.4
2017-09-16T10:36:18.534Z,67.4
2017-09-16T10:37:44.748Z,67.9
2017-09-16T10:38:44.283Z,66.9
2017-09-16T10:39:43.455Z,66.6
2017-09-16T10:40:42.748Z,67.3
2017-09-16T10:41:41.668Z,67.6
2017-09-16T10:42:41.218Z,66.4
2017-09-16T10:43:40.508Z,66.9
2017-09-16T10:44:39.427Z,67.2
2017-09-16T10:45:38.719Z,66.1
2017-09-16T10:46:37.886Z,67.5
2017-09-16T10:47:36.923Z,67.7
2017-09-16T10:49:35.609Z,65.8
2017-09-16T10:50:34.647Z,64.9
2017-09-16T10:51:34.071Z,65.2
2017-09-16T10:52:33.366Z,65.2
2017-09-16T10:53:32.533Z,64.4
2017-09-16T10:54:31.705Z,65.5
2017-09-16T10:55:30.754Z,64.6
2017-09-16T10:56:29.928Z,65.8
2017-09-16T10:57:29.468Z,66.6
2017-09-16T10:58:28.382Z,64.7
2017-09-16T10:59:27.797Z,64.1
2017-09-16T11:00:27.086Z,63.7
2017-09-16T11:01:26.507Z,65.1
2017-09-16T11:02:25.304Z,64.8
2017-09-16T11:03:24.590Z,63.8
2017-09-16T11:04:23.884Z,65
2017-09-16T11:05:23.426Z,64.2
2017-09-16T11:06:22.094Z,64.9
2017-09-16T11:07:21.771Z,64.9
2017-09-16T11:08:20.694Z,65.5
2017-09-16T11:09:19.863Z,66.1
2017-09-16T11:10:19.278Z,67.1
2017-09-16T11:11:18.575Z,65.2
2017-09-16T11:12:17.870Z,66
2017-09-16T11:13:17.037Z,65.7
2017-09-16T11:14:16.326Z,65.2
2017-09-16T11:15:15.737Z,65.5
2017-09-16T11:16:14.789Z,66.1
2017-09-16T11:17:13.697Z,66.9
2017-09-16T11:18:12.866Z,65.8
2017-09-16T11:19:12.157Z,64.2
2017-09-16T11:20:11.570Z,64.2
2017-09-16T11:21:10.878Z,61.7
2017-09-16T11:22:10.046Z,60.8
2017-09-16T11:23:09.464Z,60.5
2017-09-16T11:24:08.881Z,61.4
2017-09-16T11:25:07.545Z,62.7
2017-09-16T11:26:06.968Z,63.2
2017-09-16T11:27:06.269Z,62.8
2017-09-16T11:28:05.435Z,61.5
2017-09-16T11:29:04.854Z,62.6
2017-09-16T11:30:04.026Z,64.4
2017-09-16T11:31:03.070Z,62.5
2017-09-16T11:32:02.497Z,62.3
2017-09-16T11:33:01.915Z,63.5
2017-09-16T11:34:01.201Z,62.8
2017-09-16T11:35:00.244Z,64.2
2017-09-16T11:35:59.660Z,62.6
2017-09-16T11:36:59.082Z,62.6
2017-09-16T11:38:57.133Z,62.4
2017-09-16T11:39:56.428Z,63.5
2017-09-16T11:40:55.722Z,61.9
2017-09-16T11:41:55.267Z,59.9
2017-09-16T11:42:54.189Z,60.4
2017-09-16T11:43:53.479Z,61.2
2017-09-16T11:44:52.894Z,62.7
2017-09-16T11:45:51.940Z,62.7
2017-09-16T11:46:51.260Z,63.2
2017-09-16T11:47:50.677Z,63.3
2017-09-16T11:48:50.096Z,61.5
2017-09-16T11:49:49.008Z,61.4
2017-09-16T11:50:48.301Z,62.2
2017-09-16T11:51:47.465Z,61.6
2017-09-16T11:52:46.627Z,62.1
2017-09-16T11:53:46.051Z,62.6
2017-09-16T11:55:44.863Z,62.5
2017-09-16T11:57:42.910Z,61.7
2017-09-16T11:58:42.203Z,62.7
2017-09-16T11:59:41.742Z,61.9
2017-09-16T12:00:41.031Z,61.7
2017-09-16T12:01:39.943Z,63.8
2017-09-16T12:02:39.365Z,60.9
2017-09-16T12:03:38.659Z,62.5
2017-09-16T12:04:38.129Z,61.2
2017-09-16T12:05:37.423Z,61.5
2017-09-16T12:07:35.601Z,59.6
2017-09-16T12:08:35.018Z,59.3
2017-09-16T12:09:34.181Z,61
2017-09-16T12:10:33.350Z,60.8
2017-09-16T12:11:32.894Z,59.5
2017-09-16T12:12:31.809Z,59.3
2017-09-16T12:13:31.362Z,60
2017-09-16T12:14:30.658Z,59.3
2017-09-16T12:15:29.828Z,57.8
2017-09-16T12:16:29.119Z,60
2017-09-16T12:17:28.415Z,56.9
2017-09-16T12:18:27.721Z,58.3
2017-09-16T12:19:27.013Z,58.6
2017-09-16T12:20:26.309Z,59.8
2017-09-16T12:21:25.650Z,59.4
2017-09-16T12:22:24.571Z,56.9
2017-09-16T12:23:23.737Z,58.1
2017-09-16T12:24:23.521Z,59.2
2017-09-16T12:25:22.821Z,58.5
2017-09-16T12:26:22.119Z,59.2
2017-09-16T12:27:21.285Z,58.3
2017-09-16T12:28:20.339Z,60.4
2017-09-16T12:29:19.773Z,56.6
2017-09-16T12:30:18.941Z,58.7
2017-09-16T12:31:18.484Z,58.8
2017-09-16T12:32:17.773Z,58.9
2017-09-16T12:33:16.936Z,58.8
2017-09-16T12:34:16.228Z,59.3
2017-09-16T12:35:15.393Z,58
2017-09-16T12:36:14.446Z,58.8
2017-09-16T12:37:13.991Z,60
2017-09-16T12:38:12.907Z,60.5
2017-09-16T12:39:12.574Z,61.1
2017-09-16T12:40:11.876Z,63
2017-09-16T12:41:11.295Z,60.7
2017-09-16T12:42:10.330Z,61.2
2017-09-16T12:43:09.775Z,61.1
2017-09-16T12:44:08.701Z,60
2017-09-16T12:45:08.383Z,59.8
2017-09-16T12:46:07.301Z,59.7
2017-09-16T12:47:06.851Z,60.1
2017-09-16T12:48:05.781Z,59.3
2017-09-16T12:49:05.328Z,58.7
2017-09-16T12:50:04.248Z,60.2
2017-09-16T12:51:03.798Z,60.4
2017-09-16T12:52:03.216Z,58.7
2017-09-16T12:53:02.259Z,57.6
2017-09-16T12:54:01.809Z,58.5
2017-09-16T12:55:00.853Z,57.7
2017-09-16T12:56:59.413Z,57.7
2017-09-16T12:57:58.832Z,57.8
2017-09-16T12:58:58.255Z,56.7
2017-09-16T12:59:57.547Z,57.5
2017-09-16T13:00:56.591Z,57
2017-09-16T13:01:55.758Z,59.7
2017-09-16T13:02:55.301Z,56.5
2017-09-16T13:03:54.592Z,56.4
2017-09-16T13:04:53.765Z,53.6
2017-09-16T13:05:53.192Z,55.5
2017-09-16T13:06:52.610Z,56.2
2017-09-16T13:07:51.666Z,55
2017-09-16T13:08:50.832Z,55.7
2017-09-16T13:09:50.359Z,57.8
2017-09-16T13:10:49.280Z,56.3
2017-09-16T13:11:48.571Z,55.9
2017-09-16T13:12:18.934Z,55.9
2017-09-16T13:12:49.539Z,57.9
2017-09-16T13:13:20.185Z,57.9
2017-09-16T13:14:46.910Z,57.1
2017-09-16T13:15:46.091Z,57.8
2017-09-16T13:16:45.510Z,57.8
2017-09-16T13:17:44.565Z,58
2017-09-16T13:18:43.988Z,59.6
2017-09-16T13:19:43.287Z,60.1
2017-09-16T13:21:41.717Z,57.4
2017-09-16T13:22:41.139Z,58.8